WZZ332 UKLL-UKDD
Flight info
| Callsign | WZZ332 |
|---|---|
| Flight time | 1h 26m |
| Altitude | 39000 |
| Route | GORKU L984 OSLAN |
| Aircraft | A20N/M-SDE2E3FGHIRWXY/LB1 |
Departure
| Time | 2026-04-27 17:06 |
|---|---|
| Airport | Lviv International Airport (UKLL) |
Arrival
| Time | 2026-04-27 18:32 |
|---|---|
| Airport | Dnipro International Airport (UKDD) |
| Time | Latitude | Longitude | Altitude | Speed | Heading |
|---|---|---|---|---|---|
| 2026-04-27 16:47 | 49.81320 | 23.95837 | 1068 ft | 0 kts | 45° |
| 2026-04-27 16:53 | 49.81312 | 23.95825 | 1065 ft | 2 kts | 45° |
| 2026-04-27 16:53 | 49.81302 | 23.95808 | 1068 ft | 2 kts | 45° |
| 2026-04-27 16:53 | 49.81291 | 23.95792 | 1065 ft | 2 kts | 45° |
| 2026-04-27 16:54 | 49.81281 | 23.95775 | 1065 ft | 2 kts | 47° |
| 2026-04-27 16:54 | 49.81272 | 23.95756 | 1068 ft | 2 kts | 75° |
| 2026-04-27 16:54 | 49.81271 | 23.95734 | 1066 ft | 2 kts | 120° |
| 2026-04-27 16:54 | 49.81274 | 23.95727 | 1066 ft | 0 kts | 131° |
| 2026-04-27 16:57 | 49.81269 | 23.95734 | 1067 ft | 3 kts | 133° |
| 2026-04-27 16:58 | 49.81241 | 23.95779 | 1065 ft | 8 kts | 134° |
| 2026-04-27 16:58 | 49.81192 | 23.95856 | 1065 ft | 12 kts | 136° |
| 2026-04-27 16:58 | 49.81170 | 23.95889 | 1065 ft | 13 kts | 136° |
| 2026-04-27 17:00 | 49.81169 | 23.95890 | 1062 ft | 13 kts | 136° |
| 2026-04-27 17:00 | 49.81087 | 23.96009 | 1065 ft | 14 kts | 142° |
| 2026-04-27 17:00 | 49.80989 | 23.96033 | 1065 ft | 16 kts | 181° |
| 2026-04-27 17:01 | 49.80869 | 23.96033 | 1065 ft | 19 kts | 172° |
| 2026-04-27 17:01 | 49.80762 | 23.96155 | 1065 ft | 20 kts | 136° |
| 2026-04-27 17:01 | 49.80653 | 23.96315 | 1065 ft | 23 kts | 136° |
| 2026-04-27 17:01 | 49.80538 | 23.96494 | 1064 ft | 25 kts | 135° |
| 2026-04-27 17:02 | 49.80408 | 23.96689 | 1063 ft | 27 kts | 137° |
| 2026-04-27 17:02 | 49.80268 | 23.96898 | 1063 ft | 29 kts | 136° |
| 2026-04-27 17:02 | 49.80122 | 23.97116 | 1065 ft | 30 kts | 136° |
| 2026-04-27 17:02 | 49.80064 | 23.97205 | 1065 ft | 10 kts | 135° |
| 2026-04-27 17:03 | 49.80005 | 23.97308 | 1065 ft | 12 kts | 116° |
| 2026-04-27 17:03 | 49.79993 | 23.97381 | 1068 ft | 2 kts | 96° |
| 2026-04-27 17:03 | 49.79983 | 23.97415 | 1065 ft | 6 kts | 122° |
| 2026-04-27 17:03 | 49.79940 | 23.97437 | 1065 ft | 9 kts | 215° |
| 2026-04-27 17:04 | 49.79956 | 23.97367 | 1065 ft | 0 kts | 316° |
| 2026-04-27 17:05 | 49.79956 | 23.97366 | 1065 ft | 1 kts | 316° |
| 2026-04-27 17:05 | 49.80056 | 23.97215 | 1066 ft | 60 kts | 315° |
| 2026-04-27 17:05 | 49.80561 | 23.96459 | 1067 ft | 137 kts | 316° |
| 2026-04-27 17:05 | 49.81321 | 23.95312 | 1591 ft | 157 kts | 314° |
| 2026-04-27 17:06 | 49.82113 | 23.94097 | 2585 ft | 157 kts | 314° |
| 2026-04-27 17:06 | 49.82901 | 23.92889 | 3421 ft | 166 kts | 315° |
| 2026-04-27 17:06 | 49.83777 | 23.91596 | 3941 ft | 188 kts | 315° |
| 2026-04-27 17:06 | 49.84780 | 23.90121 | 4546 ft | 209 kts | 315° |
| 2026-04-27 17:07 | 49.85889 | 23.88478 | 5177 ft | 231 kts | 315° |
| 2026-04-27 17:07 | 49.87092 | 23.86685 | 5917 ft | 246 kts | 315° |
| 2026-04-27 17:07 | 49.88335 | 23.84825 | 6941 ft | 250 kts | 315° |
| 2026-04-27 17:07 | 49.89586 | 23.82948 | 8000 ft | 251 kts | 315° |
| 2026-04-27 17:08 | 49.90848 | 23.81057 | 9040 ft | 254 kts | 315° |
| 2026-04-27 17:08 | 49.92125 | 23.79144 | 10078 ft | 256 kts | 315° |
| 2026-04-27 17:08 | 49.93443 | 23.77174 | 10714 ft | 274 kts | 317° |
| 2026-04-27 17:08 | 49.95145 | 23.75587 | 11080 ft | 301 kts | 339° |
| 2026-04-27 17:09 | 49.96377 | 23.75203 | 11353 ft | 315 kts | 353° |
| 2026-04-27 17:10 | 49.96406 | 23.75200 | 11361 ft | 316 kts | 353° |
| 2026-04-27 17:11 | 49.98654 | 23.75739 | 12199 ft | 330 kts | 17° |
| 2026-04-27 17:11 | 50.02105 | 23.80696 | 13947 ft | 361 kts | 59° |
| 2026-04-27 17:11 | 50.02807 | 23.84449 | 14685 ft | 376 kts | 80° |
| 2026-04-27 17:12 | 50.01631 | 23.92497 | 16139 ft | 397 kts | 121° |
| 2026-04-27 17:12 | 49.99936 | 23.95930 | 16832 ft | 403 kts | 129° |
| 2026-04-27 17:12 | 49.98270 | 23.99446 | 17547 ft | 407 kts | 121° |
| 2026-04-27 17:13 | 49.96949 | 24.03347 | 18258 ft | 410 kts | 112° |
| 2026-04-27 17:13 | 49.95945 | 24.07517 | 18890 ft | 413 kts | 105° |
| 2026-04-27 17:13 | 49.95132 | 24.11814 | 19541 ft | 416 kts | 103° |
| 2026-04-27 17:13 | 49.94401 | 24.16184 | 20164 ft | 419 kts | 102° |
| 2026-04-27 17:14 | 49.93693 | 24.20592 | 20791 ft | 423 kts | 101° |
| 2026-04-27 17:14 | 49.92976 | 24.25050 | 21399 ft | 427 kts | 102° |
| 2026-04-27 17:14 | 49.92177 | 24.29512 | 22001 ft | 432 kts | 104° |
| 2026-04-27 17:14 | 49.91315 | 24.33996 | 22603 ft | 436 kts | 104° |
| 2026-04-27 17:15 | 49.90431 | 24.38529 | 23169 ft | 441 kts | 104° |
| 2026-04-27 17:15 | 49.89541 | 24.43104 | 23761 ft | 444 kts | 104° |
| 2026-04-27 17:15 | 49.88650 | 24.47708 | 24266 ft | 447 kts | 104° |
| 2026-04-27 17:15 | 49.87756 | 24.52344 | 24780 ft | 450 kts | 104° |
| 2026-04-27 17:16 | 49.86857 | 24.57007 | 25277 ft | 453 kts | 104° |
| 2026-04-27 17:16 | 49.85949 | 24.61708 | 25835 ft | 454 kts | 104° |
| 2026-04-27 17:16 | 49.85051 | 24.66349 | 26321 ft | 457 kts | 104° |
| 2026-04-27 17:16 | 49.84133 | 24.71084 | 26752 ft | 461 kts | 104° |
| 2026-04-27 17:17 | 49.83208 | 24.75846 | 27222 ft | 464 kts | 105° |
| 2026-04-27 17:17 | 49.82275 | 24.80640 | 27652 ft | 467 kts | 105° |
| 2026-04-27 17:17 | 49.81202 | 24.85402 | 28063 ft | 471 kts | 114° |
| 2026-04-27 17:18 | 49.77262 | 24.93518 | 28804 ft | 477 kts | 141° |
| 2026-04-27 17:18 | 49.74542 | 24.96433 | 29192 ft | 476 kts | 154° |
| 2026-04-27 17:18 | 49.71573 | 24.98704 | 29570 ft | 477 kts | 158° |
| 2026-04-27 17:18 | 49.68557 | 25.00873 | 29954 ft | 480 kts | 157° |
| 2026-04-27 17:19 | 49.65559 | 25.03171 | 30305 ft | 483 kts | 152° |
| 2026-04-27 17:19 | 49.62786 | 25.06155 | 30605 ft | 489 kts | 140° |
| 2026-04-27 17:19 | 49.60429 | 25.09952 | 30913 ft | 493 kts | 128° |
| 2026-04-27 17:19 | 49.58584 | 25.14407 | 31213 ft | 495 kts | 116° |
| 2026-04-27 17:20 | 49.57337 | 25.19343 | 31573 ft | 494 kts | 103° |
| 2026-04-27 17:20 | 49.56728 | 25.24518 | 31965 ft | 491 kts | 93° |
| 2026-04-27 17:20 | 49.56411 | 25.29755 | 32363 ft | 490 kts | 93° |
| 2026-04-27 17:20 | 49.55996 | 25.34973 | 32761 ft | 491 kts | 96° |
| 2026-04-27 17:21 | 49.55413 | 25.40168 | 33154 ft | 492 kts | 99° |
| 2026-04-27 17:21 | 49.54710 | 25.45326 | 33531 ft | 492 kts | 101° |
| 2026-04-27 17:21 | 49.53943 | 25.50467 | 33879 ft | 493 kts | 101° |
| 2026-04-27 17:21 | 49.53146 | 25.55607 | 34210 ft | 493 kts | 102° |
| 2026-04-27 17:22 | 49.52341 | 25.60736 | 34521 ft | 493 kts | 102° |
| 2026-04-27 17:22 | 49.51537 | 25.65858 | 34823 ft | 493 kts | 102° |
| 2026-04-27 17:22 | 49.50730 | 25.70988 | 35107 ft | 493 kts | 102° |
| 2026-04-27 17:22 | 49.49924 | 25.76115 | 35385 ft | 493 kts | 102° |
| 2026-04-27 17:23 | 49.49126 | 25.81179 | 35649 ft | 493 kts | 102° |
| 2026-04-27 17:23 | 49.48306 | 25.86366 | 35911 ft | 493 kts | 102° |
| 2026-04-27 17:23 | 49.47505 | 25.91421 | 36175 ft | 493 kts | 102° |
| 2026-04-27 17:23 | 49.46692 | 25.96541 | 36430 ft | 493 kts | 102° |
| 2026-04-27 17:24 | 49.45876 | 26.01657 | 36683 ft | 493 kts | 102° |
| 2026-04-27 17:24 | 49.45048 | 26.06829 | 36935 ft | 492 kts | 102° |
| 2026-04-27 17:24 | 49.44238 | 26.11881 | 37169 ft | 492 kts | 102° |
| 2026-04-27 17:24 | 49.43415 | 26.16991 | 37398 ft | 492 kts | 102° |
| 2026-04-27 17:25 | 49.42592 | 26.22094 | 37623 ft | 492 kts | 102° |
| 2026-04-27 17:25 | 49.41766 | 26.27191 | 37851 ft | 492 kts | 102° |
| 2026-04-27 17:25 | 49.40937 | 26.32292 | 38067 ft | 492 kts | 102° |
| 2026-04-27 17:25 | 49.40107 | 26.37392 | 38293 ft | 491 kts | 102° |
| 2026-04-27 17:26 | 49.39274 | 26.42485 | 38495 ft | 491 kts | 102° |
| 2026-04-27 17:26 | 49.38442 | 26.47568 | 38689 ft | 491 kts | 102° |
| 2026-04-27 17:26 | 49.37877 | 26.50999 | 38809 ft | 491 kts | 102° |
| 2026-04-27 17:26 | 49.37036 | 26.56083 | 38968 ft | 491 kts | 102° |
| 2026-04-27 17:27 | 49.36196 | 26.61157 | 39108 ft | 491 kts | 102° |
| 2026-04-27 17:27 | 49.35353 | 26.66232 | 39126 ft | 490 kts | 102° |
| 2026-04-27 17:27 | 49.33674 | 26.76299 | 39134 ft | 489 kts | 103° |
| 2026-04-27 17:28 | 49.31981 | 26.86398 | 39131 ft | 489 kts | 103° |
| 2026-04-27 17:29 | 49.29421 | 27.01542 | 39134 ft | 490 kts | 103° |
| 2026-04-27 17:29 | 49.27702 | 27.11638 | 39127 ft | 489 kts | 103° |
| 2026-04-27 17:30 | 49.25976 | 27.21723 | 39128 ft | 489 kts | 103° |
| 2026-04-27 17:30 | 49.23372 | 27.36822 | 39125 ft | 489 kts | 103° |
| 2026-04-27 17:31 | 49.21623 | 27.46886 | 39125 ft | 489 kts | 103° |
| 2026-04-27 17:31 | 49.19868 | 27.56934 | 39122 ft | 489 kts | 103° |
| 2026-04-27 17:32 | 49.17216 | 27.72010 | 39128 ft | 489 kts | 103° |
| 2026-04-27 17:33 | 49.15440 | 27.82037 | 39130 ft | 489 kts | 104° |
| 2026-04-27 17:33 | 49.13651 | 27.92080 | 39129 ft | 489 kts | 104° |
| 2026-04-27 17:34 | 49.11855 | 28.02105 | 39138 ft | 490 kts | 104° |
| 2026-04-27 17:34 | 49.10060 | 28.12076 | 39134 ft | 490 kts | 104° |
| 2026-04-27 17:35 | 49.08243 | 28.22108 | 39129 ft | 490 kts | 104° |
| 2026-04-27 17:35 | 49.06419 | 28.32125 | 39130 ft | 490 kts | 104° |
| 2026-04-27 17:36 | 49.04584 | 28.42145 | 39138 ft | 490 kts | 104° |
| 2026-04-27 17:36 | 49.02742 | 28.52153 | 39134 ft | 491 kts | 104° |
| 2026-04-27 17:37 | 49.00896 | 28.62124 | 39135 ft | 491 kts | 104° |
| 2026-04-27 17:37 | 48.99035 | 28.72125 | 39135 ft | 491 kts | 105° |
| 2026-04-27 17:38 | 48.97164 | 28.82129 | 39130 ft | 491 kts | 104° |
| 2026-04-27 17:38 | 48.95877 | 28.92292 | 39130 ft | 489 kts | 97° |
| 2026-04-27 17:39 | 48.94846 | 29.02535 | 39131 ft | 490 kts | 97° |
| 2026-04-27 17:39 | 48.93802 | 29.12775 | 39135 ft | 490 kts | 97° |
| 2026-04-27 17:40 | 48.92744 | 29.23011 | 39138 ft | 490 kts | 97° |
| 2026-04-27 17:40 | 48.91675 | 29.33237 | 39135 ft | 490 kts | 97° |
| 2026-04-27 17:41 | 48.90602 | 29.43409 | 39135 ft | 490 kts | 97° |
| 2026-04-27 17:41 | 48.89513 | 29.53645 | 39136 ft | 491 kts | 97° |
| 2026-04-27 17:41 | 48.89005 | 29.58423 | 39309 ft | 481 kts | 99° |
| 2026-04-27 17:42 | 48.88489 | 29.63215 | 37946 ft | 487 kts | 97° |
| 2026-04-27 17:42 | 48.87940 | 29.68306 | 39172 ft | 490 kts | 97° |
| 2026-04-27 17:42 | 48.87383 | 29.73439 | 39144 ft | 494 kts | 97° |
| 2026-04-27 17:43 | 48.86252 | 29.83798 | 39140 ft | 499 kts | 98° |
| 2026-04-27 17:43 | 48.85108 | 29.94185 | 39138 ft | 497 kts | 98° |
| 2026-04-27 17:44 | 48.83958 | 30.04542 | 39136 ft | 498 kts | 98° |
| 2026-04-27 17:44 | 48.82799 | 30.14892 | 39137 ft | 497 kts | 98° |
| 2026-04-27 17:45 | 48.81659 | 30.24986 | 37776 ft | 497 kts | 98° |
| 2026-04-27 17:45 | 48.81079 | 30.30105 | 39296 ft | 492 kts | 98° |
| 2026-04-27 17:45 | 48.80489 | 30.35275 | 39150 ft | 499 kts | 98° |
| 2026-04-27 17:46 | 48.79304 | 30.45585 | 39137 ft | 498 kts | 98° |
| 2026-04-27 17:46 | 48.78108 | 30.55923 | 39132 ft | 497 kts | 98° |
| 2026-04-27 17:47 | 48.76902 | 30.66253 | 39133 ft | 498 kts | 98° |
| 2026-04-27 17:47 | 48.75688 | 30.76575 | 39138 ft | 498 kts | 98° |
| 2026-04-27 17:48 | 48.74461 | 30.86922 | 39139 ft | 498 kts | 99° |
| 2026-04-27 17:48 | 48.73224 | 30.97272 | 39140 ft | 498 kts | 99° |
| 2026-04-27 17:49 | 48.71986 | 31.07548 | 39139 ft | 498 kts | 99° |
| 2026-04-27 17:49 | 48.70732 | 31.17872 | 39138 ft | 498 kts | 99° |
| 2026-04-27 17:50 | 48.69471 | 31.28173 | 39145 ft | 498 kts | 99° |
| 2026-04-27 17:50 | 48.67560 | 31.43636 | 39143 ft | 498 kts | 99° |
| 2026-04-27 17:51 | 48.66278 | 31.53916 | 39140 ft | 497 kts | 99° |
| 2026-04-27 17:51 | 48.64987 | 31.64182 | 39138 ft | 497 kts | 99° |
| 2026-04-27 17:52 | 48.63685 | 31.74455 | 39138 ft | 497 kts | 99° |
| 2026-04-27 17:52 | 48.62598 | 31.82975 | 39137 ft | 496 kts | 100° |
| 2026-04-27 17:53 | 48.61060 | 31.94941 | 39140 ft | 496 kts | 100° |
| 2026-04-27 17:53 | 48.59736 | 32.05164 | 39130 ft | 496 kts | 100° |
| 2026-04-27 17:54 | 48.58412 | 32.15309 | 39133 ft | 496 kts | 100° |
| 2026-04-27 17:54 | 48.57069 | 32.25527 | 39132 ft | 496 kts | 100° |
| 2026-04-27 17:55 | 48.55717 | 32.35738 | 39135 ft | 496 kts | 100° |
| 2026-04-27 17:55 | 48.54354 | 32.45961 | 39126 ft | 496 kts | 101° |
| 2026-04-27 17:56 | 48.52987 | 32.56170 | 39127 ft | 496 kts | 101° |
| 2026-04-27 17:56 | 48.51605 | 32.66380 | 39129 ft | 497 kts | 101° |
| 2026-04-27 17:57 | 48.50190 | 32.76582 | 39132 ft | 497 kts | 101° |
| 2026-04-27 17:57 | 48.48784 | 32.86694 | 38584 ft | 496 kts | 101° |
| 2026-04-27 17:58 | 48.48063 | 32.91857 | 37754 ft | 499 kts | 101° |
| 2026-04-27 17:58 | 48.47511 | 32.97022 | 36855 ft | 502 kts | 93° |
| 2026-04-27 17:58 | 48.47411 | 33.02238 | 35921 ft | 505 kts | 85° |
| 2026-04-27 17:58 | 48.47712 | 33.07534 | 34963 ft | 509 kts | 81° |
| 2026-04-27 17:59 | 48.48067 | 33.12866 | 34066 ft | 512 kts | 82° |
| 2026-04-27 17:59 | 48.48413 | 33.18221 | 33081 ft | 514 kts | 82° |
| 2026-04-27 17:59 | 48.48753 | 33.23590 | 32085 ft | 517 kts | 82° |
| 2026-04-27 17:59 | 48.49091 | 33.28999 | 31081 ft | 519 kts | 82° |
| 2026-04-27 18:00 | 48.49428 | 33.34436 | 30072 ft | 522 kts | 82° |
| 2026-04-27 18:00 | 48.49762 | 33.39887 | 29045 ft | 522 kts | 82° |
| 2026-04-27 18:00 | 48.50088 | 33.45263 | 28405 ft | 514 kts | 82° |
| 2026-04-27 18:00 | 48.50410 | 33.50612 | 27847 ft | 506 kts | 82° |
| 2026-04-27 18:01 | 48.50726 | 33.55873 | 27187 ft | 500 kts | 81° |
| 2026-04-27 18:01 | 48.51036 | 33.61063 | 26531 ft | 495 kts | 81° |
| 2026-04-27 18:01 | 48.51341 | 33.66217 | 25890 ft | 491 kts | 81° |
| 2026-04-27 18:01 | 48.51641 | 33.71322 | 25247 ft | 487 kts | 81° |
| 2026-04-27 18:02 | 48.51937 | 33.76391 | 24576 ft | 484 kts | 81° |
| 2026-04-27 18:02 | 48.52229 | 33.81431 | 23917 ft | 481 kts | 81° |
| 2026-04-27 18:02 | 48.52516 | 33.86441 | 23252 ft | 477 kts | 81° |
| 2026-04-27 18:02 | 48.52798 | 33.91397 | 22630 ft | 472 kts | 81° |
| 2026-04-27 18:03 | 48.53075 | 33.96306 | 21964 ft | 468 kts | 81° |
| 2026-04-27 18:03 | 48.53345 | 34.01111 | 21342 ft | 463 kts | 81° |
| 2026-04-27 18:03 | 48.53613 | 34.05936 | 20706 ft | 459 kts | 81° |
| 2026-04-27 18:03 | 48.53878 | 34.10720 | 20077 ft | 456 kts | 81° |
| 2026-04-27 18:04 | 48.54139 | 34.15464 | 19454 ft | 452 kts | 81° |
| 2026-04-27 18:04 | 48.54395 | 34.20171 | 18805 ft | 449 kts | 81° |
| 2026-04-27 18:04 | 48.54650 | 34.24867 | 18157 ft | 446 kts | 81° |
| 2026-04-27 18:04 | 48.54899 | 34.29507 | 17525 ft | 441 kts | 81° |
| 2026-04-27 18:05 | 48.55143 | 34.34094 | 16908 ft | 436 kts | 81° |
| 2026-04-27 18:05 | 48.55383 | 34.38628 | 16302 ft | 431 kts | 81° |
| 2026-04-27 18:05 | 48.55617 | 34.43113 | 15693 ft | 426 kts | 81° |
| 2026-04-27 18:05 | 48.55848 | 34.47542 | 15092 ft | 421 kts | 81° |
| 2026-04-27 18:06 | 48.56076 | 34.51933 | 14502 ft | 417 kts | 82° |
| 2026-04-27 18:06 | 48.56300 | 34.56277 | 13918 ft | 413 kts | 82° |
| 2026-04-27 18:06 | 48.56521 | 34.60593 | 13313 ft | 408 kts | 82° |
| 2026-04-27 18:06 | 48.56733 | 34.64786 | 12736 ft | 403 kts | 82° |
| 2026-04-27 18:07 | 48.56943 | 34.68973 | 12169 ft | 397 kts | 82° |
| 2026-04-27 18:07 | 48.57149 | 34.73101 | 11612 ft | 391 kts | 82° |
| 2026-04-27 18:07 | 48.57354 | 34.77222 | 11056 ft | 386 kts | 82° |
| 2026-04-27 18:07 | 48.57385 | 34.81247 | 10692 ft | 378 kts | 90° |
| 2026-04-27 18:08 | 48.57274 | 34.85083 | 10526 ft | 363 kts | 89° |
| 2026-04-27 18:08 | 48.57187 | 34.88814 | 10373 ft | 348 kts | 88° |
| 2026-04-27 18:08 | 48.57107 | 34.92406 | 10243 ft | 335 kts | 88° |
| 2026-04-27 18:08 | 48.57027 | 34.95848 | 10118 ft | 321 kts | 88° |
| 2026-04-27 18:09 | 48.56948 | 34.99185 | 9842 ft | 315 kts | 88° |
| 2026-04-27 18:09 | 48.56869 | 35.02473 | 9396 ft | 313 kts | 88° |
| 2026-04-27 18:09 | 48.56786 | 35.05751 | 8931 ft | 312 kts | 91° |
| 2026-04-27 18:09 | 48.56348 | 35.08963 | 8475 ft | 312 kts | 110° |
| 2026-04-27 18:10 | 48.55724 | 35.10912 | 8112 ft | 311 kts | 121° |
| 2026-04-27 18:10 | 48.54611 | 35.13677 | 7620 ft | 309 kts | 122° |
| 2026-04-27 18:10 | 48.53492 | 35.16467 | 7125 ft | 307 kts | 122° |
| 2026-04-27 18:10 | 48.52395 | 35.19214 | 6652 ft | 305 kts | 122° |
| 2026-04-27 18:11 | 48.51305 | 35.21949 | 6204 ft | 303 kts | 122° |
| 2026-04-27 18:11 | 48.50220 | 35.24667 | 5810 ft | 301 kts | 122° |
| 2026-04-27 18:11 | 48.49142 | 35.27367 | 5429 ft | 299 kts | 122° |
| 2026-04-27 18:11 | 48.48069 | 35.30053 | 5038 ft | 298 kts | 122° |
| 2026-04-27 18:12 | 48.47002 | 35.32722 | 4625 ft | 296 kts | 122° |
| 2026-04-27 18:12 | 48.45954 | 35.35343 | 4463 ft | 286 kts | 122° |
| 2026-04-27 18:12 | 48.44954 | 35.37815 | 4337 ft | 273 kts | 126° |
| 2026-04-27 18:12 | 48.43600 | 35.39704 | 4146 ft | 256 kts | 157° |
| 2026-04-27 18:13 | 48.41950 | 35.40379 | 3885 ft | 240 kts | 182° |
| 2026-04-27 18:13 | 48.40303 | 35.40365 | 3597 ft | 234 kts | 190° |
| 2026-04-27 18:13 | 48.38688 | 35.40198 | 3316 ft | 232 kts | 191° |
| 2026-04-27 18:13 | 48.37175 | 35.39659 | 3042 ft | 216 kts | 217° |
| 2026-04-27 18:14 | 48.36154 | 35.38218 | 2848 ft | 197 kts | 245° |
| 2026-04-27 18:14 | 48.35746 | 35.36322 | 2638 ft | 183 kts | 270° |
| 2026-04-27 18:14 | 48.35758 | 35.34378 | 2501 ft | 186 kts | 273° |
| 2026-04-27 18:14 | 48.35758 | 35.32487 | 2501 ft | 178 kts | 272° |
| 2026-04-27 18:15 | 48.35746 | 35.30718 | 2509 ft | 166 kts | 272° |
| 2026-04-27 18:15 | 48.35733 | 35.28978 | 2510 ft | 166 kts | 272° |
| 2026-04-27 18:15 | 48.35725 | 35.27253 | 2507 ft | 164 kts | 272° |
| 2026-04-27 18:15 | 48.35726 | 35.25651 | 2414 ft | 142 kts | 272° |
| 2026-04-27 18:16 | 48.35726 | 35.24266 | 2205 ft | 123 kts | 272° |
| 2026-04-27 18:16 | 48.35727 | 35.23041 | 2032 ft | 117 kts | 272° |
| 2026-04-27 18:16 | 48.35727 | 35.21832 | 1860 ft | 114 kts | 272° |
| 2026-04-27 18:16 | 48.35728 | 35.20635 | 1699 ft | 115 kts | 271° |
| 2026-04-27 18:17 | 48.35728 | 35.19419 | 1526 ft | 116 kts | 271° |
| 2026-04-27 18:17 | 48.35724 | 35.18188 | 1343 ft | 120 kts | 271° |
| 2026-04-27 18:17 | 48.35725 | 35.16927 | 1166 ft | 121 kts | 271° |
| 2026-04-27 18:17 | 48.35726 | 35.15663 | 1002 ft | 120 kts | 270° |
| 2026-04-27 18:18 | 48.35723 | 35.14389 | 842 ft | 122 kts | 270° |
| 2026-04-27 18:18 | 48.35734 | 35.13119 | 677 ft | 123 kts | 269° |
| 2026-04-27 18:18 | 48.35731 | 35.11846 | 536 ft | 122 kts | 269° |
| 2026-04-27 18:18 | 48.35731 | 35.10625 | 502 ft | 108 kts | 270° |
| 2026-04-27 18:19 | 48.35730 | 35.09269 | 734 ft | 144 kts | 269° |
| 2026-04-27 18:19 | 48.35734 | 35.07820 | 1698 ft | 135 kts | 272° |
| 2026-04-27 18:19 | 48.35746 | 35.06278 | 2219 ft | 167 kts | 272° |
| 2026-04-27 18:19 | 48.35767 | 35.04312 | 2450 ft | 196 kts | 272° |
| 2026-04-27 18:20 | 48.35772 | 35.02356 | 2511 ft | 187 kts | 269° |
| 2026-04-27 18:20 | 48.35301 | 35.00511 | 2513 ft | 199 kts | 233° |
| 2026-04-27 18:20 | 48.35161 | 35.00282 | 2515 ft | 201 kts | 228° |
| 2026-04-27 18:22 | 48.34548 | 34.99647 | 2517 ft | 208 kts | 211° |
| 2026-04-27 18:22 | 48.33095 | 34.99324 | 2473 ft | 219 kts | 174° |
| 2026-04-27 18:23 | 48.31696 | 35.00341 | 2514 ft | 232 kts | 139° |
| 2026-04-27 18:23 | 48.30840 | 35.02386 | 2508 ft | 234 kts | 103° |
| 2026-04-27 18:23 | 48.30646 | 35.04804 | 2507 ft | 234 kts | 91° |
| 2026-04-27 18:23 | 48.30589 | 35.07253 | 2508 ft | 234 kts | 88° |
| 2026-04-27 18:24 | 48.30571 | 35.09705 | 2508 ft | 234 kts | 88° |
| 2026-04-27 18:24 | 48.30557 | 35.12123 | 2511 ft | 234 kts | 88° |
| 2026-04-27 18:24 | 48.30544 | 35.14546 | 2507 ft | 231 kts | 88° |
| 2026-04-27 18:24 | 48.30534 | 35.16976 | 2510 ft | 233 kts | 88° |
| 2026-04-27 18:25 | 48.30524 | 35.19418 | 2500 ft | 233 kts | 88° |
| 2026-04-27 18:25 | 48.30508 | 35.21863 | 2505 ft | 233 kts | 88° |
| 2026-04-27 18:25 | 48.30487 | 35.24300 | 2506 ft | 234 kts | 88° |
| 2026-04-27 18:25 | 48.30467 | 35.26739 | 2505 ft | 234 kts | 88° |
| 2026-04-27 18:26 | 48.30507 | 35.29171 | 2501 ft | 231 kts | 75° |
| 2026-04-27 18:26 | 48.31038 | 35.31431 | 2505 ft | 230 kts | 62° |
| 2026-04-27 18:26 | 48.31932 | 35.33325 | 2513 ft | 219 kts | 31° |
| 2026-04-27 18:26 | 48.33221 | 35.34200 | 2502 ft | 192 kts | 359° |
| 2026-04-27 18:27 | 48.34436 | 35.34039 | 2522 ft | 162 kts | 334° |
| 2026-04-27 18:27 | 48.35333 | 35.33277 | 2498 ft | 134 kts | 313° |
| 2026-04-27 18:27 | 48.35879 | 35.32304 | 2524 ft | 116 kts | 298° |
| 2026-04-27 18:27 | 48.36190 | 35.31209 | 2505 ft | 112 kts | 285° |
| 2026-04-27 18:28 | 48.36282 | 35.30036 | 2509 ft | 114 kts | 271° |
| 2026-04-27 18:28 | 48.36146 | 35.28856 | 2508 ft | 116 kts | 258° |
| 2026-04-27 18:28 | 48.35843 | 35.27725 | 2507 ft | 115 kts | 256° |
| 2026-04-27 18:28 | 48.35691 | 35.26560 | 2463 ft | 114 kts | 269° |
| 2026-04-27 18:29 | 48.35681 | 35.25370 | 2316 ft | 113 kts | 272° |
| 2026-04-27 18:29 | 48.35692 | 35.24185 | 2165 ft | 114 kts | 272° |
| 2026-04-27 18:29 | 48.35702 | 35.22994 | 2008 ft | 114 kts | 272° |
| 2026-04-27 18:29 | 48.35717 | 35.21810 | 1849 ft | 113 kts | 273° |
| 2026-04-27 18:30 | 48.35727 | 35.20626 | 1691 ft | 114 kts | 271° |
| 2026-04-27 18:30 | 48.35727 | 35.19427 | 1524 ft | 114 kts | 271° |
| 2026-04-27 18:30 | 48.35726 | 35.18207 | 1354 ft | 119 kts | 271° |
| 2026-04-27 18:30 | 48.35723 | 35.16955 | 1165 ft | 120 kts | 271° |
| 2026-04-27 18:31 | 48.35731 | 35.15701 | 998 ft | 120 kts | 270° |
| 2026-04-27 18:31 | 48.35726 | 35.14433 | 840 ft | 121 kts | 269° |
| 2026-04-27 18:31 | 48.35733 | 35.13170 | 680 ft | 121 kts | 269° |
| 2026-04-27 18:31 | 48.35733 | 35.11919 | 537 ft | 121 kts | 268° |
| 2026-04-27 18:32 | 48.35731 | 35.10728 | 485 ft | 97 kts | 270° |
| 2026-04-27 18:32 | 48.35731 | 35.09924 | 489 ft | 66 kts | 270° |
| 2026-04-27 18:32 | 48.35731 | 35.09367 | 476 ft | 45 kts | 271° |
| 2026-04-27 18:32 | 48.35731 | 35.09060 | 483 ft | 19 kts | 269° |
| 2026-04-27 18:33 | 48.35734 | 35.08858 | 476 ft | 16 kts | 277° |
| 2026-04-27 18:33 | 48.35824 | 35.08791 | 481 ft | 17 kts | 360° |
| 2026-04-27 18:33 | 48.35937 | 35.08790 | 477 ft | 18 kts | 0° |
| 2026-04-27 18:33 | 48.36048 | 35.08841 | 480 ft | 18 kts | 43° |
| 2026-04-27 18:34 | 48.36149 | 35.08965 | 483 ft | 20 kts | 37° |
| 2026-04-27 18:34 | 48.36269 | 35.09101 | 477 ft | 23 kts | 37° |
| 2026-04-27 18:34 | 48.36402 | 35.09251 | 484 ft | 25 kts | 36° |
| 2026-04-27 18:34 | 48.36535 | 35.09400 | 484 ft | 19 kts | 37° |
| 2026-04-27 18:35 | 48.36581 | 35.09452 | 480 ft | 1 kts | 36° |
| 2026-04-27 18:35 | 48.36606 | 35.09477 | 483 ft | 7 kts | 24° |
| 2026-04-27 18:35 | 48.36660 | 35.09470 | 478 ft | 10 kts | 15° |
| 2026-04-27 18:35 | 48.36698 | 35.09504 | 479 ft | 0 kts | 36° |
| 2026-04-27 18:36 | 48.36700 | 35.09507 | 480 ft | 0 kts | 36° |